sensor_id;sensor_type;location;lat;lon;timestamp;P1;durP1;ratioP1;P2;durP2;ratioP2
46399;SDS011;32104;50.838;4.388;2023-03-21T00:01:05;8.82;;;1.98;;
46399;SDS011;32104;50.838;4.388;2023-03-21T00:03:36;9.00;;;2.15;;
46399;SDS011;32104;50.838;4.388;2023-03-21T00:09:29;6.57;;;1.85;;
46399;SDS011;32104;50.838;4.388;2023-03-21T00:11:57;10.93;;;2.88;;
46399;SDS011;32104;50.838;4.388;2023-03-21T00:14:26;7.45;;;2.03;;
46399;SDS011;32104;50.838;4.388;2023-03-21T00:19:23;6.03;;;1.77;;
46399;SDS011;32104;50.838;4.388;2023-03-21T00:21:50;9.77;;;2.13;;
46399;SDS011;32104;50.838;4.388;2023-03-21T00:24:26;6.78;;;2.65;;
46399;SDS011;32104;50.838;4.388;2023-03-21T00:26:52;9.90;;;2.90;;
46399;SDS011;32104;50.838;4.388;2023-03-21T00:29:17;7.25;;;1.98;;
46399;SDS011;32104;50.838;4.388;2023-03-21T00:34:31;11.05;;;2.33;;
46399;SDS011;32104;50.838;4.388;2023-03-21T00:37:02;6.93;;;2.03;;
46399;SDS011;32104;50.838;4.388;2023-03-21T00:39:33;4.20;;;1.63;;
46399;SDS011;32104;50.838;4.388;2023-03-21T00:42:11;6.65;;;1.90;;
46399;SDS011;32104;50.838;4.388;2023-03-21T00:44:40;8.50;;;1.60;;
46399;SDS011;32104;50.838;4.388;2023-03-21T00:47:12;8.95;;;1.52;;
46399;SDS011;32104;50.838;4.388;2023-03-21T00:49:51;7.20;;;1.58;;
46399;SDS011;32104;50.838;4.388;2023-03-21T00:52:17;8.68;;;1.73;;
46399;SDS011;32104;50.838;4.388;2023-03-21T00:54:43;6.30;;;1.95;;
46399;SDS011;32104;50.838;4.388;2023-03-21T00:57:09;4.95;;;1.65;;
46399;SDS011;32104;50.838;4.388;2023-03-21T00:59:38;9.77;;;1.52;;
46399;SDS011;32104;50.838;4.388;2023-03-21T01:02:06;8.07;;;1.65;;
46399;SDS011;32104;50.838;4.388;2023-03-21T01:04:33;5.78;;;1.63;;
46399;SDS011;32104;50.838;4.388;2023-03-21T01:06:59;5.53;;;1.63;;
46399;SDS011;32104;50.838;4.388;2023-03-21T01:09:29;7.10;;;1.45;;
46399;SDS011;32104;50.838;4.388;2023-03-21T01:11:55;4.38;;;1.20;;
46399;SDS011;32104;50.838;4.388;2023-03-21T01:14:28;5.55;;;1.45;;
46399;SDS011;32104;50.838;4.388;2023-03-21T01:16:57;7.32;;;1.58;;
46399;SDS011;32104;50.838;4.388;2023-03-21T01:19:25;10.17;;;1.47;;
46399;SDS011;32104;50.838;4.388;2023-03-21T01:25:17;6.22;;;1.83;;
46399;SDS011;32104;50.838;4.388;2023-03-21T01:31:07;7.85;;;2.10;;
46399;SDS011;32104;50.838;4.388;2023-03-21T01:33:35;8.63;;;1.85;;
46399;SDS011;32104;50.838;4.388;2023-03-21T01:36:01;6.15;;;1.88;;
46399;SDS011;32104;50.838;4.388;2023-03-21T01:38:31;10.77;;;1.75;;
46399;SDS011;32104;50.838;4.388;2023-03-21T01:40:58;8.55;;;1.63;;
46399;SDS011;32104;50.838;4.388;2023-03-21T01:43:32;6.05;;;1.75;;
46399;SDS011;32104;50.838;4.388;2023-03-21T01:48:58;3.55;;;1.55;;
46399;SDS011;32104;50.838;4.388;2023-03-21T01:51:25;13.93;;;2.35;;
46399;SDS011;32104;50.838;4.388;2023-03-21T01:53:53;9.02;;;1.80;;
46399;SDS011;32104;50.838;4.388;2023-03-21T01:56:23;9.55;;;2.38;;
46399;SDS011;32104;50.838;4.388;2023-03-21T01:58:55;6.07;;;1.77;;
46399;SDS011;32104;50.838;4.388;2023-03-21T02:01:41;6.43;;;1.77;;
46399;SDS011;32104;50.838;4.388;2023-03-21T02:04:14;5.38;;;1.85;;
46399;SDS011;32104;50.838;4.388;2023-03-21T02:06:48;12.13;;;1.95;;
46399;SDS011;32104;50.838;4.388;2023-03-21T02:09:29;9.43;;;2.58;;
46399;SDS011;32104;50.838;4.388;2023-03-21T02:12:05;12.73;;;2.50;;
46399;SDS011;32104;50.838;4.388;2023-03-21T02:14:33;6.65;;;1.50;;
46399;SDS011;32104;50.838;4.388;2023-03-21T02:19:42;8.40;;;2.13;;
46399;SDS011;32104;50.838;4.388;2023-03-21T02:22:46;5.25;;;1.55;;
46399;SDS011;32104;50.838;4.388;2023-03-21T02:26:04;4.90;;;1.17;;
46399;SDS011;32104;50.838;4.388;2023-03-21T02:29:16;9.05;;;1.80;;
46399;SDS011;32104;50.838;4.388;2023-03-21T02:32:09;4.30;;;1.17;;
46399;SDS011;32104;50.838;4.388;2023-03-21T02:34:44;5.32;;;1.63;;
46399;SDS011;32104;50.838;4.388;2023-03-21T02:45:20;6.00;;;1.05;;
46399;SDS011;32104;50.838;4.388;2023-03-21T02:48:00;2.15;;;0.82;;
46399;SDS011;32104;50.838;4.388;2023-03-21T02:50:51;2.00;;;0.90;;
46399;SDS011;32104;50.838;4.388;2023-03-21T02:53:20;2.33;;;0.90;;
46399;SDS011;32104;50.838;4.388;2023-03-21T02:58:16;5.72;;;0.85;;
46399;SDS011;32104;50.838;4.388;2023-03-21T03:00:45;4.85;;;1.13;;
46399;SDS011;32104;50.838;4.388;2023-03-21T03:03:12;3.90;;;1.10;;
46399;SDS011;32104;50.838;4.388;2023-03-21T03:05:41;4.10;;;1.17;;
46399;SDS011;32104;50.838;4.388;2023-03-21T03:19:25;4.95;;;0.93;;
46399;SDS011;32104;50.838;4.388;2023-03-21T03:22:05;2.80;;;0.90;;
46399;SDS011;32104;50.838;4.388;2023-03-21T03:24:41;2.90;;;0.90;;
46399;SDS011;32104;50.838;4.388;2023-03-21T03:27:24;10.93;;;1.20;;
46399;SDS011;32104;50.838;4.388;2023-03-21T03:29:53;5.82;;;0.90;;
46399;SDS011;32104;50.838;4.388;2023-03-21T03:32:24;3.53;;;0.85;;
46399;SDS011;32104;50.838;4.388;2023-03-21T03:35:00;7.13;;;1.13;;
46399;SDS011;32104;50.838;4.388;2023-03-21T03:37:28;4.95;;;1.27;;
46399;SDS011;32104;50.838;4.388;2023-03-21T03:39:59;8.63;;;1.42;;
46399;SDS011;32104;50.838;4.388;2023-03-21T03:42:35;7.03;;;1.02;;
46399;SDS011;32104;50.838;4.388;2023-03-21T03:45:06;4.75;;;1.00;;
46399;SDS011;32104;50.838;4.388;2023-03-21T03:47:54;7.65;;;1.48;;
46399;SDS011;32104;50.838;4.388;2023-03-21T03:53:41;5.70;;;1.33;;
46399;SDS011;32104;50.838;4.388;2023-03-21T03:58:58;8.70;;;1.42;;
46399;SDS011;32104;50.838;4.388;2023-03-21T04:01:28;6.05;;;1.60;;
46399;SDS011;32104;50.838;4.388;2023-03-21T04:04:06;4.60;;;1.35;;
46399;SDS011;32104;50.838;4.388;2023-03-21T04:09:53;12.23;;;2.03;;
46399;SDS011;32104;50.838;4.388;2023-03-21T04:12:19;7.50;;;2.13;;
46399;SDS011;32104;50.838;4.388;2023-03-21T04:18:13;9.40;;;1.50;;
46399;SDS011;32104;50.838;4.388;2023-03-21T04:20:38;6.80;;;2.67;;
46399;SDS011;32104;50.838;4.388;2023-03-21T04:23:05;10.52;;;1.95;;
46399;SDS011;32104;50.838;4.388;2023-03-21T04:25:39;7.53;;;1.70;;
46399;SDS011;32104;50.838;4.388;2023-03-21T04:30:49;6.05;;;1.63;;
46399;SDS011;32104;50.838;4.388;2023-03-21T04:33:15;14.10;;;1.80;;
46399;SDS011;32104;50.838;4.388;2023-03-21T04:35:44;5.30;;;1.63;;
46399;SDS011;32104;50.838;4.388;2023-03-21T04:41:15;6.15;;;1.83;;
46399;SDS011;32104;50.838;4.388;2023-03-21T04:47:21;9.00;;;2.30;;
46399;SDS011;32104;50.838;4.388;2023-03-21T04:52:34;7.70;;;1.50;;
46399;SDS011;32104;50.838;4.388;2023-03-21T04:55:00;10.15;;;1.92;;
46399;SDS011;32104;50.838;4.388;2023-03-21T04:57:30;7.65;;;2.15;;
46399;SDS011;32104;50.838;4.388;2023-03-21T05:12:45;7.13;;;2.45;;
46399;SDS011;32104;50.838;4.388;2023-03-21T05:15:11;10.88;;;3.17;;
46399;SDS011;32104;50.838;4.388;2023-03-21T05:17:37;13.20;;;2.95;;
46399;SDS011;32104;50.838;4.388;2023-03-21T05:20:02;5.90;;;2.22;;
46399;SDS011;32104;50.838;4.388;2023-03-21T05:22:36;9.63;;;2.47;;
46399;SDS011;32104;50.838;4.388;2023-03-21T05:28:29;13.18;;;2.50;;
46399;SDS011;32104;50.838;4.388;2023-03-21T05:30:55;7.90;;;2.70;;
46399;SDS011;32104;50.838;4.388;2023-03-21T05:33:21;10.60;;;2.17;;
46399;SDS011;32104;50.838;4.388;2023-03-21T05:35:49;11.70;;;2.45;;
46399;SDS011;32104;50.838;4.388;2023-03-21T05:38:15;4.75;;;2.00;;
46399;SDS011;32104;50.838;4.388;2023-03-21T05:40:48;9.43;;;1.85;;
46399;SDS011;32104;50.838;4.388;2023-03-21T05:46:22;9.65;;;1.80;;
46399;SDS011;32104;50.838;4.388;2023-03-21T05:48:48;9.02;;;2.60;;
46399;SDS011;32104;50.838;4.388;2023-03-21T05:51:13;12.75;;;2.20;;
46399;SDS011;32104;50.838;4.388;2023-03-21T05:53:39;12.05;;;2.10;;
46399;SDS011;32104;50.838;4.388;2023-03-21T05:56:05;8.65;;;2.92;;
46399;SDS011;32104;50.838;4.388;2023-03-21T05:58:32;8.90;;;1.98;;
46399;SDS011;32104;50.838;4.388;2023-03-21T06:00:58;8.30;;;2.40;;
46399;SDS011;32104;50.838;4.388;2023-03-21T06:03:23;10.63;;;2.78;;
46399;SDS011;32104;50.838;4.388;2023-03-21T06:05:49;11.68;;;3.10;;
46399;SDS011;32104;50.838;4.388;2023-03-21T06:08:15;8.82;;;2.65;;
46399;SDS011;32104;50.838;4.388;2023-03-21T06:10:41;10.55;;;2.35;;
46399;SDS011;32104;50.838;4.388;2023-03-21T06:16:34;11.65;;;2.63;;
46399;SDS011;32104;50.838;4.388;2023-03-21T06:22:23;11.77;;;2.60;;
46399;SDS011;32104;50.838;4.388;2023-03-21T06:27:52;8.90;;;2.30;;
46399;SDS011;32104;50.838;4.388;2023-03-21T06:30:18;6.25;;;1.70;;
46399;SDS011;32104;50.838;4.388;2023-03-21T06:32:46;8.57;;;2.65;;
46399;SDS011;32104;50.838;4.388;2023-03-21T06:35:13;8.13;;;2.60;;
46399;SDS011;32104;50.838;4.388;2023-03-21T06:37:39;7.60;;;1.85;;
46399;SDS011;32104;50.838;4.388;2023-03-21T06:40:06;10.50;;;2.67;;
46399;SDS011;32104;50.838;4.388;2023-03-21T06:42:34;12.02;;;2.35;;
46399;SDS011;32104;50.838;4.388;2023-03-21T06:45:00;7.68;;;2.20;;
46399;SDS011;32104;50.838;4.388;2023-03-21T06:47:31;4.03;;;2.05;;
46399;SDS011;32104;50.838;4.388;2023-03-21T06:49:56;8.25;;;2.20;;
46399;SDS011;32104;50.838;4.388;2023-03-21T06:52:25;5.30;;;1.92;;
46399;SDS011;32104;50.838;4.388;2023-03-21T06:54:51;12.48;;;1.70;;
46399;SDS011;32104;50.838;4.388;2023-03-21T06:57:17;7.05;;;2.25;;
46399;SDS011;32104;50.838;4.388;2023-03-21T06:59:44;7.97;;;2.17;;
46399;SDS011;32104;50.838;4.388;2023-03-21T07:02:10;6.95;;;2.00;;
46399;SDS011;32104;50.838;4.388;2023-03-21T07:04:36;6.05;;;1.40;;
46399;SDS011;32104;50.838;4.388;2023-03-21T07:07:02;6.47;;;1.50;;
46399;SDS011;32104;50.838;4.388;2023-03-21T07:09:27;10.88;;;1.40;;
46399;SDS011;32104;50.838;4.388;2023-03-21T07:11:53;6.13;;;1.60;;
46399;SDS011;32104;50.838;4.388;2023-03-21T07:14:19;7.82;;;1.60;;
46399;SDS011;32104;50.838;4.388;2023-03-21T07:16:45;3.83;;;1.25;;
46399;SDS011;32104;50.838;4.388;2023-03-21T07:36:08;1.85;;;0.70;;
46399;SDS011;32104;50.838;4.388;2023-03-21T09:01:15;3.50;;;0.90;;
46399;SDS011;32104;50.838;4.388;2023-03-21T11:30:16;8.70;;;1.50;;
46399;SDS011;32104;50.838;4.388;2023-03-21T12:11:18;4.72;;;1.25;;
46399;SDS011;32104;50.838;4.388;2023-03-21T12:28:31;3.97;;;1.23;;
46399;SDS011;32104;50.838;4.388;2023-03-21T12:56:13;4.18;;;1.30;;
46399;SDS011;32104;50.838;4.388;2023-03-21T12:58:49;2.30;;;1.08;;
46399;SDS011;32104;50.838;4.388;2023-03-21T13:01:21;6.47;;;1.25;;
46399;SDS011;32104;50.838;4.388;2023-03-21T13:04:03;6.57;;;1.48;;
46399;SDS011;32104;50.838;4.388;2023-03-21T13:06:48;5.05;;;1.55;;
46399;SDS011;32104;50.838;4.388;2023-03-21T13:09:36;2.08;;;1.00;;
46399;SDS011;32104;50.838;4.388;2023-03-21T18:01:28;12.50;;;4.43;;
46399;SDS011;32104;50.838;4.388;2023-03-21T18:07:16;12.40;;;4.28;;
46399;SDS011;32104;50.838;4.388;2023-03-21T18:09:42;9.18;;;4.07;;
46399;SDS011;32104;50.838;4.388;2023-03-21T18:12:08;10.50;;;3.58;;
46399;SDS011;32104;50.838;4.388;2023-03-21T18:14:37;9.80;;;3.30;;
46399;SDS011;32104;50.838;4.388;2023-03-21T19:17:24;6.85;;;2.42;;
46399;SDS011;32104;50.838;4.388;2023-03-21T19:19:56;6.80;;;2.42;;
46399;SDS011;32104;50.838;4.388;2023-03-21T19:23:04;6.97;;;3.05;;
46399;SDS011;32104;50.838;4.388;2023-03-21T19:25:38;8.18;;;2.88;;
46399;SDS011;32104;50.838;4.388;2023-03-21T19:28:08;7.40;;;3.45;;
46399;SDS011;32104;50.838;4.388;2023-03-21T19:30:40;5.40;;;2.63;;
46399;SDS011;32104;50.838;4.388;2023-03-21T19:33:17;4.18;;;2.47;;
46399;SDS011;32104;50.838;4.388;2023-03-21T19:42:32;6.45;;;2.97;;
46399;SDS011;32104;50.838;4.388;2023-03-21T19:45:00;8.27;;;2.40;;
46399;SDS011;32104;50.838;4.388;2023-03-21T19:47:41;9.30;;;2.40;;
46399;SDS011;32104;50.838;4.388;2023-03-21T19:53:43;4.20;;;2.10;;
46399;SDS011;32104;50.838;4.388;2023-03-21T19:56:09;7.10;;;2.38;;
46399;SDS011;32104;50.838;4.388;2023-03-21T19:58:38;3.47;;;1.73;;
46399;SDS011;32104;50.838;4.388;2023-03-21T20:01:03;4.55;;;1.50;;
46399;SDS011;32104;50.838;4.388;2023-03-21T20:03:29;4.38;;;1.40;;
46399;SDS011;32104;50.838;4.388;2023-03-21T20:06:06;1.65;;;1.10;;
46399;SDS011;32104;50.838;4.388;2023-03-21T20:08:33;2.85;;;1.10;;
46399;SDS011;32104;50.838;4.388;2023-03-21T20:11:00;6.03;;;0.90;;
46399;SDS011;32104;50.838;4.388;2023-03-21T20:13:26;5.75;;;0.80;;
46399;SDS011;32104;50.838;4.388;2023-03-21T20:15:52;3.50;;;1.02;;
46399;SDS011;32104;50.838;4.388;2023-03-21T20:18:18;5.93;;;0.90;;
46399;SDS011;32104;50.838;4.388;2023-03-21T20:21:10;6.35;;;1.00;;
46399;SDS011;32104;50.838;4.388;2023-03-21T20:23:36;3.08;;;1.00;;
46399;SDS011;32104;50.838;4.388;2023-03-21T20:26:11;6.65;;;0.90;;
46399;SDS011;32104;50.838;4.388;2023-03-21T20:28:38;4.22;;;1.20;;
46399;SDS011;32104;50.838;4.388;2023-03-21T20:41:11;7.60;;;2.20;;
46399;SDS011;32104;50.838;4.388;2023-03-21T21:06:24;1.60;;;1.00;;
46399;SDS011;32104;50.838;4.388;2023-03-21T21:08:51;4.15;;;0.90;;
46399;SDS011;32104;50.838;4.388;2023-03-21T21:11:22;4.47;;;1.17;;
46399;SDS011;32104;50.838;4.388;2023-03-21T21:13:48;7.15;;;0.98;;
46399;SDS011;32104;50.838;4.388;2023-03-21T21:16:18;3.05;;;1.45;;
46399;SDS011;32104;50.838;4.388;2023-03-21T21:18:46;5.70;;;1.45;;
46399;SDS011;32104;50.838;4.388;2023-03-21T21:21:13;6.30;;;1.33;;
46399;SDS011;32104;50.838;4.388;2023-03-21T21:24:24;7.60;;;2.72;;
46399;SDS011;32104;50.838;4.388;2023-03-21T21:26:52;15.95;;;3.55;;
46399;SDS011;32104;50.838;4.388;2023-03-21T21:29:19;15.43;;;3.60;;
46399;SDS011;32104;50.838;4.388;2023-03-21T21:31:45;9.60;;;2.03;;
46399;SDS011;32104;50.838;4.388;2023-03-21T21:34:15;8.13;;;1.65;;
46399;SDS011;32104;50.838;4.388;2023-03-21T21:39:31;4.45;;;1.30;;
46399;SDS011;32104;50.838;4.388;2023-03-21T21:42:00;3.97;;;1.15;;
46399;SDS011;32104;50.838;4.388;2023-03-21T21:44:29;6.60;;;1.20;;
46399;SDS011;32104;50.838;4.388;2023-03-21T21:46:58;8.20;;;1.30;;
46399;SDS011;32104;50.838;4.388;2023-03-21T21:49:46;6.70;;;1.40;;
46399;SDS011;32104;50.838;4.388;2023-03-21T21:55:36;4.63;;;0.90;;
46399;SDS011;32104;50.838;4.388;2023-03-21T22:04:54;7.10;;;0.82;;
46399;SDS011;32104;50.838;4.388;2023-03-21T22:07:21;6.78;;;0.98;;
46399;SDS011;32104;50.838;4.388;2023-03-21T22:23:05;3.97;;;0.80;;
46399;SDS011;32104;50.838;4.388;2023-03-21T22:25:34;7.07;;;0.90;;
46399;SDS011;32104;50.838;4.388;2023-03-21T22:28:03;3.03;;;0.80;;
46399;SDS011;32104;50.838;4.388;2023-03-21T22:30:29;5.50;;;0.80;;
46399;SDS011;32104;50.838;4.388;2023-03-21T22:33:01;5.25;;;1.17;;
46399;SDS011;32104;50.838;4.388;2023-03-21T22:35:27;7.90;;;0.98;;
46399;SDS011;32104;50.838;4.388;2023-03-21T22:37:53;1.77;;;0.77;;
46399;SDS011;32104;50.838;4.388;2023-03-21T22:40:22;2.88;;;0.80;;
46399;SDS011;32104;50.838;4.388;2023-03-21T22:42:56;7.30;;;1.10;;
46399;SDS011;32104;50.838;4.388;2023-03-21T22:48:52;5.50;;;0.93;;
46399;SDS011;32104;50.838;4.388;2023-03-21T22:54:25;4.15;;;1.00;;
46399;SDS011;32104;50.838;4.388;2023-03-21T22:56:56;4.07;;;1.15;;
46399;SDS011;32104;50.838;4.388;2023-03-21T22:59:28;4.90;;;1.55;;
46399;SDS011;32104;50.838;4.388;2023-03-21T23:01:57;11.13;;;1.58;;
46399;SDS011;32104;50.838;4.388;2023-03-21T23:04:23;5.65;;;1.73;;
46399;SDS011;32104;50.838;4.388;2023-03-21T23:06:51;7.95;;;2.22;;
46399;SDS011;32104;50.838;4.388;2023-03-21T23:09:17;5.13;;;2.53;;
46399;SDS011;32104;50.838;4.388;2023-03-21T23:11:47;8.73;;;2.97;;
46399;SDS011;32104;50.838;4.388;2023-03-21T23:14:14;7.13;;;3.22;;
46399;SDS011;32104;50.838;4.388;2023-03-21T23:16:40;8.70;;;3.33;;
46399;SDS011;32104;50.838;4.388;2023-03-21T23:19:09;8.07;;;3.30;;
46399;SDS011;32104;50.838;4.388;2023-03-21T23:24:21;8.73;;;3.25;;
46399;SDS011;32104;50.838;4.388;2023-03-21T23:26:49;8.95;;;3.25;;
46399;SDS011;32104;50.838;4.388;2023-03-21T23:29:17;9.88;;;3.85;;
46399;SDS011;32104;50.838;4.388;2023-03-21T23:31:48;7.40;;;3.72;;
46399;SDS011;32104;50.838;4.388;2023-03-21T23:34:14;8.73;;;3.47;;
46399;SDS011;32104;50.838;4.388;2023-03-21T23:36:40;7.57;;;3.33;;
46399;SDS011;32104;50.838;4.388;2023-03-21T23:39:08;7.28;;;3.33;;
46399;SDS011;32104;50.838;4.388;2023-03-21T23:41:37;6.78;;;3.63;;
46399;SDS011;32104;50.838;4.388;2023-03-21T23:44:02;8.55;;;3.70;;
46399;SDS011;32104;50.838;4.388;2023-03-21T23:46:30;9.07;;;3.75;;
46399;SDS011;32104;50.838;4.388;2023-03-21T23:48:55;7.63;;;3.30;;
46399;SDS011;32104;50.838;4.388;2023-03-21T23:51:21;8.02;;;2.55;;
46399;SDS011;32104;50.838;4.388;2023-03-21T23:53:47;5.28;;;2.78;;
46399;SDS011;32104;50.838;4.388;2023-03-21T23:56:22;11.80;;;3.15;;
46399;SDS011;32104;50.838;4.388;2023-03-21T23:58:51;5.13;;;2.78;;
